sensor_id;sensor_type;location;lat;lon;timestamp;temperature;humidity
10722;DHT22;5412;59.450;18.124;2023-11-21T00:01:02;2.70;99.90
10722;DHT22;5412;59.450;18.124;2023-11-21T00:03:29;2.70;99.90
10722;DHT22;5412;59.450;18.124;2023-11-21T00:05:55;2.70;99.90
10722;DHT22;5412;59.450;18.124;2023-11-21T00:08:21;2.70;99.90
10722;DHT22;5412;59.450;18.124;2023-11-21T00:10:47;2.70;99.90
10722;DHT22;5412;59.450;18.124;2023-11-21T00:13:13;2.70;99.90
10722;DHT22;5412;59.450;18.124;2023-11-21T00:15:39;2.70;99.90
10722;DHT22;5412;59.450;18.124;2023-11-21T00:18:06;2.70;99.90
10722;DHT22;5412;59.450;18.124;2023-11-21T00:20:32;2.60;99.90
10722;DHT22;5412;59.450;18.124;2023-11-21T00:22:57;2.70;99.90
10722;DHT22;5412;59.450;18.124;2023-11-21T00:25:24;2.70;99.90
10722;DHT22;5412;59.450;18.124;2023-11-21T00:27:50;2.70;99.90
10722;DHT22;5412;59.450;18.124;2023-11-21T00:30:16;2.70;99.90
10722;DHT22;5412;59.450;18.124;2023-11-21T00:32:42;2.80;99.90
10722;DHT22;5412;59.450;18.124;2023-11-21T00:35:08;2.50;99.90
10722;DHT22;5412;59.450;18.124;2023-11-21T00:37:34;2.70;99.90
10722;DHT22;5412;59.450;18.124;2023-11-21T00:40:00;2.70;99.90
10722;DHT22;5412;59.450;18.124;2023-11-21T00:42:30;2.70;99.90
10722;DHT22;5412;59.450;18.124;2023-11-21T00:44:57;2.70;99.90
10722;DHT22;5412;59.450;18.124;2023-11-21T00:47:23;2.70;99.90
10722;DHT22;5412;59.450;18.124;2023-11-21T00:49:49;2.80;99.90
10722;DHT22;5412;59.450;18.124;2023-11-21T00:52:14;2.80;99.90
10722;DHT22;5412;59.450;18.124;2023-11-21T00:54:41;2.90;99.90
10722;DHT22;5412;59.450;18.124;2023-11-21T00:57:07;2.70;99.90
10722;DHT22;5412;59.450;18.124;2023-11-21T00:59:34;2.70;99.90
10722;DHT22;5412;59.450;18.124;2023-11-21T01:02:00;2.20;99.90
10722;DHT22;5412;59.450;18.124;2023-11-21T01:04:27;2.70;99.90
10722;DHT22;5412;59.450;18.124;2023-11-21T01:06:52;2.60;99.90
10722;DHT22;5412;59.450;18.124;2023-11-21T01:09:18;2.70;99.90
10722;DHT22;5412;59.450;18.124;2023-11-21T01:11:44;2.70;99.90
10722;DHT22;5412;59.450;18.124;2023-11-21T01:14:10;2.70;99.90
10722;DHT22;5412;59.450;18.124;2023-11-21T01:16:36;2.70;99.90
10722;DHT22;5412;59.450;18.124;2023-11-21T01:19:01;2.70;99.90
10722;DHT22;5412;59.450;18.124;2023-11-21T01:21:27;2.70;99.90
10722;DHT22;5412;59.450;18.124;2023-11-21T01:23:53;2.70;99.90
10722;DHT22;5412;59.450;18.124;2023-11-21T01:26:20;2.80;99.90
10722;DHT22;5412;59.450;18.124;2023-11-21T01:28:46;2.70;99.90
10722;DHT22;5412;59.450;18.124;2023-11-21T01:31:15;2.60;99.90
10722;DHT22;5412;59.450;18.124;2023-11-21T01:33:41;2.60;99.90
10722;DHT22;5412;59.450;18.124;2023-11-21T01:36:07;2.60;99.90
10722;DHT22;5412;59.450;18.124;2023-11-21T01:38:32;2.70;99.90
10722;DHT22;5412;59.450;18.124;2023-11-21T01:40:58;2.60;99.90
10722;DHT22;5412;59.450;18.124;2023-11-21T01:43:26;2.70;99.90
10722;DHT22;5412;59.450;18.124;2023-11-21T01:45:54;2.70;99.90
10722;DHT22;5412;59.450;18.124;2023-11-21T01:48:22;2.70;99.90
10722;DHT22;5412;59.450;18.124;2023-11-21T01:50:48;2.50;99.90
10722;DHT22;5412;59.450;18.124;2023-11-21T01:53:14;2.40;99.90
10722;DHT22;5412;59.450;18.124;2023-11-21T01:55:41;2.50;99.90
10722;DHT22;5412;59.450;18.124;2023-11-21T01:58:10;2.50;99.90
10722;DHT22;5412;59.450;18.124;2023-11-21T02:00:37;2.50;99.90
10722;DHT22;5412;59.450;18.124;2023-11-21T02:03:04;2.40;99.90
10722;DHT22;5412;59.450;18.124;2023-11-21T02:05:29;2.40;99.90
10722;DHT22;5412;59.450;18.124;2023-11-21T02:07:55;2.30;99.90
10722;DHT22;5412;59.450;18.124;2023-11-21T02:10:22;2.40;99.90
10722;DHT22;5412;59.450;18.124;2023-11-21T02:12:50;2.30;99.90
10722;DHT22;5412;59.450;18.124;2023-11-21T02:15:16;2.40;99.90
10722;DHT22;5412;59.450;18.124;2023-11-21T02:17:46;2.40;99.90
10722;DHT22;5412;59.450;18.124;2023-11-21T02:20:17;2.30;99.90
10722;DHT22;5412;59.450;18.124;2023-11-21T02:22:48;2.40;99.90
10722;DHT22;5412;59.450;18.124;2023-11-21T02:25:14;2.30;99.90
10722;DHT22;5412;59.450;18.124;2023-11-21T02:27:39;2.40;99.90
10722;DHT22;5412;59.450;18.124;2023-11-21T02:30:06;2.30;99.90
10722;DHT22;5412;59.450;18.124;2023-11-21T02:32:33;2.30;99.90
10722;DHT22;5412;59.450;18.124;2023-11-21T02:35:00;2.30;99.90
10722;DHT22;5412;59.450;18.124;2023-11-21T02:37:27;2.30;99.90
10722;DHT22;5412;59.450;18.124;2023-11-21T02:39:52;2.20;99.90
10722;DHT22;5412;59.450;18.124;2023-11-21T02:42:18;2.20;99.90
10722;DHT22;5412;59.450;18.124;2023-11-21T02:44:44;2.20;99.90
10722;DHT22;5412;59.450;18.124;2023-11-21T02:47:10;2.30;99.90
10722;DHT22;5412;59.450;18.124;2023-11-21T02:49:35;2.30;99.90
10722;DHT22;5412;59.450;18.124;2023-11-21T02:52:01;2.40;99.90
10722;DHT22;5412;59.450;18.124;2023-11-21T02:54:27;2.40;99.90
10722;DHT22;5412;59.450;18.124;2023-11-21T02:56:53;2.50;99.90
10722;DHT22;5412;59.450;18.124;2023-11-21T02:59:18;2.30;99.90
10722;DHT22;5412;59.450;18.124;2023-11-21T03:01:45;2.40;99.90
10722;DHT22;5412;59.450;18.124;2023-11-21T03:04:12;2.40;99.90
10722;DHT22;5412;59.450;18.124;2023-11-21T03:06:43;2.40;99.90
10722;DHT22;5412;59.450;18.124;2023-11-21T03:09:09;2.40;99.90
10722;DHT22;5412;59.450;18.124;2023-11-21T03:11:37;2.40;99.90
10722;DHT22;5412;59.450;18.124;2023-11-21T03:14:03;2.30;99.90
10722;DHT22;5412;59.450;18.124;2023-11-21T03:16:28;2.40;99.90
10722;DHT22;5412;59.450;18.124;2023-11-21T03:18:54;2.40;99.90
10722;DHT22;5412;59.450;18.124;2023-11-21T03:21:20;2.50;99.90
10722;DHT22;5412;59.450;18.124;2023-11-21T03:23:46;2.50;99.90
10722;DHT22;5412;59.450;18.124;2023-11-21T03:26:12;2.50;99.90
10722;DHT22;5412;59.450;18.124;2023-11-21T03:28:38;2.50;99.90
10722;DHT22;5412;59.450;18.124;2023-11-21T03:31:04;2.60;99.90
10722;DHT22;5412;59.450;18.124;2023-11-21T03:33:32;2.50;99.90
10722;DHT22;5412;59.450;18.124;2023-11-21T03:35:57;2.50;99.90
10722;DHT22;5412;59.450;18.124;2023-11-21T03:38:23;2.60;99.90
10722;DHT22;5412;59.450;18.124;2023-11-21T03:40:49;2.50;99.90
10722;DHT22;5412;59.450;18.124;2023-11-21T03:43:16;2.60;99.90
10722;DHT22;5412;59.450;18.124;2023-11-21T03:45:41;2.50;99.90
10722;DHT22;5412;59.450;18.124;2023-11-21T03:48:07;2.50;99.90
10722;DHT22;5412;59.450;18.124;2023-11-21T03:50:34;2.60;99.90
10722;DHT22;5412;59.450;18.124;2023-11-21T03:53:00;2.70;99.90
10722;DHT22;5412;59.450;18.124;2023-11-21T03:55:26;2.60;99.90
10722;DHT22;5412;59.450;18.124;2023-11-21T03:57:52;2.70;99.90
10722;DHT22;5412;59.450;18.124;2023-11-21T04:00:18;2.70;99.90
10722;DHT22;5412;59.450;18.124;2023-11-21T04:02:45;2.80;99.90
10722;DHT22;5412;59.450;18.124;2023-11-21T04:05:11;2.80;99.90
10722;DHT22;5412;59.450;18.124;2023-11-21T04:07:37;2.70;99.90
10722;DHT22;5412;59.450;18.124;2023-11-21T04:10:05;2.70;99.90
10722;DHT22;5412;59.450;18.124;2023-11-21T04:12:33;2.70;99.90
10722;DHT22;5412;59.450;18.124;2023-11-21T04:14:59;2.70;99.90
10722;DHT22;5412;59.450;18.124;2023-11-21T04:17:24;2.70;99.90
10722;DHT22;5412;59.450;18.124;2023-11-21T04:19:50;2.70;99.90
10722;DHT22;5412;59.450;18.124;2023-11-21T04:22:16;2.70;99.90
10722;DHT22;5412;59.450;18.124;2023-11-21T04:24:41;2.90;99.90
10722;DHT22;5412;59.450;18.124;2023-11-21T04:27:07;2.70;99.90
10722;DHT22;5412;59.450;18.124;2023-11-21T04:29:33;2.80;99.90
10722;DHT22;5412;59.450;18.124;2023-11-21T04:31:59;2.80;99.90
10722;DHT22;5412;59.450;18.124;2023-11-21T04:34:24;2.80;99.90
10722;DHT22;5412;59.450;18.124;2023-11-21T04:36:50;2.80;99.90
10722;DHT22;5412;59.450;18.124;2023-11-21T04:39:16;2.80;99.90
10722;DHT22;5412;59.450;18.124;2023-11-21T04:41:41;2.80;99.90
10722;DHT22;5412;59.450;18.124;2023-11-21T04:44:08;2.80;99.90
10722;DHT22;5412;59.450;18.124;2023-11-21T04:46:34;2.90;99.90
10722;DHT22;5412;59.450;18.124;2023-11-21T04:48:59;2.80;99.90
10722;DHT22;5412;59.450;18.124;2023-11-21T04:51:25;2.80;99.90
10722;DHT22;5412;59.450;18.124;2023-11-21T04:53:51;2.80;99.90
10722;DHT22;5412;59.450;18.124;2023-11-21T04:56:16;2.80;99.90
10722;DHT22;5412;59.450;18.124;2023-11-21T04:58:42;2.80;99.90
10722;DHT22;5412;59.450;18.124;2023-11-21T05:01:08;2.80;99.90
10722;DHT22;5412;59.450;18.124;2023-11-21T05:03:34;2.80;99.90
10722;DHT22;5412;59.450;18.124;2023-11-21T05:06:00;2.80;99.90
10722;DHT22;5412;59.450;18.124;2023-11-21T05:08:25;2.80;99.90
10722;DHT22;5412;59.450;18.124;2023-11-21T05:10:52;2.90;99.90
10722;DHT22;5412;59.450;18.124;2023-11-21T05:13:17;2.90;99.90
10722;DHT22;5412;59.450;18.124;2023-11-21T05:15:44;2.90;99.90
10722;DHT22;5412;59.450;18.124;2023-11-21T05:18:10;2.90;99.90
10722;DHT22;5412;59.450;18.124;2023-11-21T05:20:36;2.90;99.90
10722;DHT22;5412;59.450;18.124;2023-11-21T05:23:04;2.90;99.90
10722;DHT22;5412;59.450;18.124;2023-11-21T05:25:30;2.90;99.90
10722;DHT22;5412;59.450;18.124;2023-11-21T05:27:56;2.90;99.90
10722;DHT22;5412;59.450;18.124;2023-11-21T05:30:22;2.80;99.90
10722;DHT22;5412;59.450;18.124;2023-11-21T05:32:47;2.80;99.90
10722;DHT22;5412;59.450;18.124;2023-11-21T05:35:15;2.80;99.90
10722;DHT22;5412;59.450;18.124;2023-11-21T05:37:42;2.70;99.90
10722;DHT22;5412;59.450;18.124;2023-11-21T05:40:08;2.70;99.90
10722;DHT22;5412;59.450;18.124;2023-11-21T05:42:35;2.70;99.90
10722;DHT22;5412;59.450;18.124;2023-11-21T05:45:02;2.80;99.90
10722;DHT22;5412;59.450;18.124;2023-11-21T05:47:40;2.80;99.90
10722;DHT22;5412;59.450;18.124;2023-11-21T05:50:07;2.70;99.90
10722;DHT22;5412;59.450;18.124;2023-11-21T05:52:36;2.80;99.90
10722;DHT22;5412;59.450;18.124;2023-11-21T05:55:03;2.80;99.90
10722;DHT22;5412;59.450;18.124;2023-11-21T05:57:30;2.70;99.90
10722;DHT22;5412;59.450;18.124;2023-11-21T05:59:56;2.70;99.90
10722;DHT22;5412;59.450;18.124;2023-11-21T06:02:21;2.80;99.90
10722;DHT22;5412;59.450;18.124;2023-11-21T06:04:47;2.80;99.90
10722;DHT22;5412;59.450;18.124;2023-11-21T06:07:13;2.80;99.90
10722;DHT22;5412;59.450;18.124;2023-11-21T06:09:38;2.80;99.90
10722;DHT22;5412;59.450;18.124;2023-11-21T06:12:04;2.80;99.90
10722;DHT22;5412;59.450;18.124;2023-11-21T06:14:31;2.70;99.90
10722;DHT22;5412;59.450;18.124;2023-11-21T06:16:58;2.80;99.90
10722;DHT22;5412;59.450;18.124;2023-11-21T06:19:24;2.80;99.90
10722;DHT22;5412;59.450;18.124;2023-11-21T06:21:50;2.80;99.90
10722;DHT22;5412;59.450;18.124;2023-11-21T06:24:16;2.80;99.90
10722;DHT22;5412;59.450;18.124;2023-11-21T06:26:42;2.70;99.90
10722;DHT22;5412;59.450;18.124;2023-11-21T06:29:09;2.80;99.90
10722;DHT22;5412;59.450;18.124;2023-11-21T06:31:36;2.80;99.90
10722;DHT22;5412;59.450;18.124;2023-11-21T06:34:02;2.70;99.90
10722;DHT22;5412;59.450;18.124;2023-11-21T06:36:28;2.70;99.90
10722;DHT22;5412;59.450;18.124;2023-11-21T06:38:54;2.70;99.90
10722;DHT22;5412;59.450;18.124;2023-11-21T06:41:20;2.70;99.90
10722;DHT22;5412;59.450;18.124;2023-11-21T06:43:46;2.70;99.90
10722;DHT22;5412;59.450;18.124;2023-11-21T06:46:12;2.50;99.90
10722;DHT22;5412;59.450;18.124;2023-11-21T06:48:43;2.60;99.90
10722;DHT22;5412;59.450;18.124;2023-11-21T06:51:09;2.70;99.90
10722;DHT22;5412;59.450;18.124;2023-11-21T06:53:36;2.70;99.90
10722;DHT22;5412;59.450;18.124;2023-11-21T06:56:02;2.70;99.90
10722;DHT22;5412;59.450;18.124;2023-11-21T06:58:28;2.70;99.90
10722;DHT22;5412;59.450;18.124;2023-11-21T07:00:54;2.70;99.90
10722;DHT22;5412;59.450;18.124;2023-11-21T07:03:20;2.70;99.90
10722;DHT22;5412;59.450;18.124;2023-11-21T07:05:45;2.70;99.90
10722;DHT22;5412;59.450;18.124;2023-11-21T07:08:11;2.70;99.90
10722;DHT22;5412;59.450;18.124;2023-11-21T07:10:38;2.80;99.90
10722;DHT22;5412;59.450;18.124;2023-11-21T07:13:04;2.70;99.90
10722;DHT22;5412;59.450;18.124;2023-11-21T07:15:29;2.70;99.90
10722;DHT22;5412;59.450;18.124;2023-11-21T07:17:55;2.70;99.90
10722;DHT22;5412;59.450;18.124;2023-11-21T07:20:21;2.60;99.90
10722;DHT22;5412;59.450;18.124;2023-11-21T07:22:47;2.70;99.90
10722;DHT22;5412;59.450;18.124;2023-11-21T07:25:12;2.70;99.90
10722;DHT22;5412;59.450;18.124;2023-11-21T07:27:38;2.60;99.90
10722;DHT22;5412;59.450;18.124;2023-11-21T07:30:04;2.50;99.90
10722;DHT22;5412;59.450;18.124;2023-11-21T07:32:31;2.60;99.90
10722;DHT22;5412;59.450;18.124;2023-11-21T07:34:57;2.60;99.90
10722;DHT22;5412;59.450;18.124;2023-11-21T07:37:25;2.70;99.90
10722;DHT22;5412;59.450;18.124;2023-11-21T07:39:51;2.70;99.90
10722;DHT22;5412;59.450;18.124;2023-11-21T07:42:23;2.50;99.90
10722;DHT22;5412;59.450;18.124;2023-11-21T07:44:49;2.50;99.90
10722;DHT22;5412;59.450;18.124;2023-11-21T07:47:15;2.60;99.90
10722;DHT22;5412;59.450;18.124;2023-11-21T07:49:41;2.60;99.90
10722;DHT22;5412;59.450;18.124;2023-11-21T07:52:09;2.60;99.90
10722;DHT22;5412;59.450;18.124;2023-11-21T07:54:35;2.50;99.90
10722;DHT22;5412;59.450;18.124;2023-11-21T07:57:01;2.40;99.90
10722;DHT22;5412;59.450;18.124;2023-11-21T07:59:28;2.50;99.90
10722;DHT22;5412;59.450;18.124;2023-11-21T08:01:54;2.60;99.90
10722;DHT22;5412;59.450;18.124;2023-11-21T08:04:19;2.70;99.90
10722;DHT22;5412;59.450;18.124;2023-11-21T08:06:45;2.70;99.90
10722;DHT22;5412;59.450;18.124;2023-11-21T08:09:11;2.80;99.90
10722;DHT22;5412;59.450;18.124;2023-11-21T08:11:38;2.80;99.90
10722;DHT22;5412;59.450;18.124;2023-11-21T08:14:04;2.80;99.90
10722;DHT22;5412;59.450;18.124;2023-11-21T08:16:30;2.80;99.90
10722;DHT22;5412;59.450;18.124;2023-11-21T08:18:56;2.70;99.90
10722;DHT22;5412;59.450;18.124;2023-11-21T08:21:22;2.70;99.90
10722;DHT22;5412;59.450;18.124;2023-11-21T08:23:50;2.60;99.90
10722;DHT22;5412;59.450;18.124;2023-11-21T08:26:20;2.70;99.90
10722;DHT22;5412;59.450;18.124;2023-11-21T08:28:45;2.70;99.90
10722;DHT22;5412;59.450;18.124;2023-11-21T08:31:12;2.80;99.90
10722;DHT22;5412;59.450;18.124;2023-11-21T08:33:38;2.70;99.90
10722;DHT22;5412;59.450;18.124;2023-11-21T08:36:13;2.60;99.90
10722;DHT22;5412;59.450;18.124;2023-11-21T08:38:38;2.60;99.90
10722;DHT22;5412;59.450;18.124;2023-11-21T08:41:07;2.70;99.90
10722;DHT22;5412;59.450;18.124;2023-11-21T08:43:36;2.70;99.90
10722;DHT22;5412;59.450;18.124;2023-11-21T08:46:08;2.60;99.90
10722;DHT22;5412;59.450;18.124;2023-11-21T08:48:37;2.60;99.90
10722;DHT22;5412;59.450;18.124;2023-11-21T08:51:03;2.60;99.90
10722;DHT22;5412;59.450;18.124;2023-11-21T08:53:30;2.60;99.90
10722;DHT22;5412;59.450;18.124;2023-11-21T08:55:56;2.60;99.90
10722;DHT22;5412;59.450;18.124;2023-11-21T08:58:22;2.60;99.90
10722;DHT22;5412;59.450;18.124;2023-11-21T09:00:48;2.70;99.90
10722;DHT22;5412;59.450;18.124;2023-11-21T09:03:14;2.70;99.90
10722;DHT22;5412;59.450;18.124;2023-11-21T09:05:40;2.70;99.90
10722;DHT22;5412;59.450;18.124;2023-11-21T09:08:05;2.80;99.90
10722;DHT22;5412;59.450;18.124;2023-11-21T09:10:36;2.90;99.90
10722;DHT22;5412;59.450;18.124;2023-11-21T09:13:02;2.90;99.90
10722;DHT22;5412;59.450;18.124;2023-11-21T09:15:28;2.80;99.90
10722;DHT22;5412;59.450;18.124;2023-11-21T09:17:54;2.90;99.90
10722;DHT22;5412;59.450;18.124;2023-11-21T09:20:19;3.00;99.90
10722;DHT22;5412;59.450;18.124;2023-11-21T09:22:48;3.00;99.90
10722;DHT22;5412;59.450;18.124;2023-11-21T09:25:14;3.00;99.90
10722;DHT22;5412;59.450;18.124;2023-11-21T09:27:40;3.00;99.90
10722;DHT22;5412;59.450;18.124;2023-11-21T09:30:07;3.00;99.90
10722;DHT22;5412;59.450;18.124;2023-11-21T09:32:37;2.80;99.90
10722;DHT22;5412;59.450;18.124;2023-11-21T09:35:04;3.00;99.90
10722;DHT22;5412;59.450;18.124;2023-11-21T09:37:30;3.10;99.90
10722;DHT22;5412;59.450;18.124;2023-11-21T09:39:56;3.20;99.90
10722;DHT22;5412;59.450;18.124;2023-11-21T09:42:25;3.10;99.90
10722;DHT22;5412;59.450;18.124;2023-11-21T09:47:55;3.10;99.90
10722;DHT22;5412;59.450;18.124;2023-11-21T09:50:24;3.20;99.90
10722;DHT22;5412;59.450;18.124;2023-11-21T09:55:18;3.30;99.90
10722;DHT22;5412;59.450;18.124;2023-11-21T09:57:48;3.30;99.90
10722;DHT22;5412;59.450;18.124;2023-11-21T10:00:16;3.10;99.90
10722;DHT22;5412;59.450;18.124;2023-11-21T10:02:43;3.20;99.90
10722;DHT22;5412;59.450;18.124;2023-11-21T10:05:09;3.20;99.90
10722;DHT22;5412;59.450;18.124;2023-11-21T10:07:38;3.10;99.90
10722;DHT22;5412;59.450;18.124;2023-11-21T10:10:05;3.30;99.90
10722;DHT22;5412;59.450;18.124;2023-11-21T10:12:33;3.20;99.90
10722;DHT22;5412;59.450;18.124;2023-11-21T10:15:01;3.10;99.90
10722;DHT22;5412;59.450;18.124;2023-11-21T10:17:28;3.30;99.90
10722;DHT22;5412;59.450;18.124;2023-11-21T10:20:03;3.30;99.90
10722;DHT22;5412;59.450;18.124;2023-11-21T10:22:31;3.30;99.90
10722;DHT22;5412;59.450;18.124;2023-11-21T10:24:57;3.30;99.90
10722;DHT22;5412;59.450;18.124;2023-11-21T10:27:23;3.40;99.90
10722;DHT22;5412;59.450;18.124;2023-11-21T10:29:51;3.30;99.90
10722;DHT22;5412;59.450;18.124;2023-11-21T10:32:17;3.20;99.90
10722;DHT22;5412;59.450;18.124;2023-11-21T10:34:42;3.10;99.90
10722;DHT22;5412;59.450;18.124;2023-11-21T10:37:20;3.10;99.90
10722;DHT22;5412;59.450;18.124;2023-11-21T10:39:46;3.10;99.90
10722;DHT22;5412;59.450;18.124;2023-11-21T10:42:12;3.20;99.90
10722;DHT22;5412;59.450;18.124;2023-11-21T10:44:37;3.20;99.90
10722;DHT22;5412;59.450;18.124;2023-11-21T10:47:03;3.20;99.90
10722;DHT22;5412;59.450;18.124;2023-11-21T10:49:30;3.20;99.90
10722;DHT22;5412;59.450;18.124;2023-11-21T10:51:56;3.20;99.90
10722;DHT22;5412;59.450;18.124;2023-11-21T10:54:26;3.30;99.90
10722;DHT22;5412;59.450;18.124;2023-11-21T10:56:59;3.20;99.90
10722;DHT22;5412;59.450;18.124;2023-11-21T10:59:29;3.30;99.90
10722;DHT22;5412;59.450;18.124;2023-11-21T11:01:57;3.30;99.90
10722;DHT22;5412;59.450;18.124;2023-11-21T11:04:25;3.30;99.90
10722;DHT22;5412;59.450;18.124;2023-11-21T11:06:57;3.30;99.90
10722;DHT22;5412;59.450;18.124;2023-11-21T11:09:26;3.40;99.90
10722;DHT22;5412;59.450;18.124;2023-11-21T11:11:52;3.40;99.90
10722;DHT22;5412;59.450;18.124;2023-11-21T11:14:19;3.40;99.90
10722;DHT22;5412;59.450;18.124;2023-11-21T11:16:45;3.50;99.90
10722;DHT22;5412;59.450;18.124;2023-11-21T11:19:11;3.50;99.90
10722;DHT22;5412;59.450;18.124;2023-11-21T11:36:22;3.40;99.90
10722;DHT22;5412;59.450;18.124;2023-11-21T11:38:23;3.40;99.90
10722;DHT22;5412;59.450;18.124;2023-11-21T11:40:52;3.20;99.90
10722;DHT22;5412;59.450;18.124;2023-11-21T11:43:27;3.20;99.90
10722;DHT22;5412;59.450;18.124;2023-11-21T11:45:57;3.20;99.90
10722;DHT22;5412;59.450;18.124;2023-11-21T11:48:25;3.30;99.90
10722;DHT22;5412;59.450;18.124;2023-11-21T11:51:04;3.40;99.90
10722;DHT22;5412;59.450;18.124;2023-11-21T11:53:39;3.40;99.90
10722;DHT22;5412;59.450;18.124;2023-11-21T11:58:53;3.50;99.90
10722;DHT22;5412;59.450;18.124;2023-11-21T12:01:21;3.40;99.90
10722;DHT22;5412;59.450;18.124;2023-11-21T12:06:43;3.40;99.90
10722;DHT22;5412;59.450;18.124;2023-11-21T12:09:19;3.30;99.90
10722;DHT22;5412;59.450;18.124;2023-11-21T12:11:47;3.30;99.90
10722;DHT22;5412;59.450;18.124;2023-11-21T12:14:14;3.30;99.90
10722;DHT22;5412;59.450;18.124;2023-11-21T12:16:40;3.30;99.90
10722;DHT22;5412;59.450;18.124;2023-11-21T12:19:06;3.40;99.90
10722;DHT22;5412;59.450;18.124;2023-11-21T12:21:32;3.40;99.90
10722;DHT22;5412;59.450;18.124;2023-11-21T12:23:58;3.40;99.90
10722;DHT22;5412;59.450;18.124;2023-11-21T12:26:24;3.40;99.90
10722;DHT22;5412;59.450;18.124;2023-11-21T12:28:53;3.30;99.90
10722;DHT22;5412;59.450;18.124;2023-11-21T12:31:22;3.30;99.90
10722;DHT22;5412;59.450;18.124;2023-11-21T12:33:48;3.40;99.90
10722;DHT22;5412;59.450;18.124;2023-11-21T12:36:14;3.40;99.90
10722;DHT22;5412;59.450;18.124;2023-11-21T12:38:42;3.50;99.90
10722;DHT22;5412;59.450;18.124;2023-11-21T12:41:10;3.40;99.90
10722;DHT22;5412;59.450;18.124;2023-11-21T12:43:36;3.30;99.90
10722;DHT22;5412;59.450;18.124;2023-11-21T12:46:13;3.20;99.90
10722;DHT22;5412;59.450;18.124;2023-11-21T12:48:44;3.10;99.90
10722;DHT22;5412;59.450;18.124;2023-11-21T12:51:13;3.20;99.90
10722;DHT22;5412;59.450;18.124;2023-11-21T12:53:42;3.20;99.90
10722;DHT22;5412;59.450;18.124;2023-11-21T12:56:11;3.00;99.90
10722;DHT22;5412;59.450;18.124;2023-11-21T12:58:37;2.80;99.90
10722;DHT22;5412;59.450;18.124;2023-11-21T13:01:07;2.90;99.90
10722;DHT22;5412;59.450;18.124;2023-11-21T13:03:45;3.00;99.90
10722;DHT22;5412;59.450;18.124;2023-11-21T13:06:11;2.90;99.90
10722;DHT22;5412;59.450;18.124;2023-11-21T13:08:38;2.70;99.90
10722;DHT22;5412;59.450;18.124;2023-11-21T13:11:05;2.80;99.90
10722;DHT22;5412;59.450;18.124;2023-11-21T13:13:31;2.80;99.90
10722;DHT22;5412;59.450;18.124;2023-11-21T13:16:01;2.80;99.90
10722;DHT22;5412;59.450;18.124;2023-11-21T13:18:30;2.80;99.90
10722;DHT22;5412;59.450;18.124;2023-11-21T13:21:02;2.70;99.90
10722;DHT22;5412;59.450;18.124;2023-11-21T13:23:34;2.60;99.90
10722;DHT22;5412;59.450;18.124;2023-11-21T13:26:01;2.60;99.90
10722;DHT22;5412;59.450;18.124;2023-11-21T13:28:29;2.50;99.90
10722;DHT22;5412;59.450;18.124;2023-11-21T13:30:59;2.50;99.90
10722;DHT22;5412;59.450;18.124;2023-11-21T13:33:43;2.70;99.90
10722;DHT22;5412;59.450;18.124;2023-11-21T13:36:15;2.60;99.90
10722;DHT22;5412;59.450;18.124;2023-11-21T13:38:48;2.60;99.90
10722;DHT22;5412;59.450;18.124;2023-11-21T13:41:14;2.40;99.90
10722;DHT22;5412;59.450;18.124;2023-11-21T13:43:40;2.50;99.90
10722;DHT22;5412;59.450;18.124;2023-11-21T13:46:09;2.50;99.90
10722;DHT22;5412;59.450;18.124;2023-11-21T13:48:47;2.50;99.90
10722;DHT22;5412;59.450;18.124;2023-11-21T13:51:19;2.50;99.90
10722;DHT22;5412;59.450;18.124;2023-11-21T13:53:49;2.50;99.90
10722;DHT22;5412;59.450;18.124;2023-11-21T13:56:18;2.30;99.90
10722;DHT22;5412;59.450;18.124;2023-11-21T13:58:52;2.40;99.90
10722;DHT22;5412;59.450;18.124;2023-11-21T14:01:23;2.40;99.90
10722;DHT22;5412;59.450;18.124;2023-11-21T14:03:49;2.30;99.90
10722;DHT22;5412;59.450;18.124;2023-11-21T14:06:22;2.30;99.90
10722;DHT22;5412;59.450;18.124;2023-11-21T14:08:52;2.30;99.90
10722;DHT22;5412;59.450;18.124;2023-11-21T14:11:22;2.30;99.90
10722;DHT22;5412;59.450;18.124;2023-11-21T14:13:48;2.30;99.90
10722;DHT22;5412;59.450;18.124;2023-11-21T14:16:15;2.20;99.90
10722;DHT22;5412;59.450;18.124;2023-11-21T14:18:42;2.30;99.90
10722;DHT22;5412;59.450;18.124;2023-11-21T14:21:18;2.30;99.90
10722;DHT22;5412;59.450;18.124;2023-11-21T14:23:44;2.30;99.90
10722;DHT22;5412;59.450;18.124;2023-11-21T14:26:11;2.20;99.90
10722;DHT22;5412;59.450;18.124;2023-11-21T14:28:42;2.30;99.90
10722;DHT22;5412;59.450;18.124;2023-11-21T14:31:08;2.30;99.90
10722;DHT22;5412;59.450;18.124;2023-11-21T14:33:39;2.30;99.90
10722;DHT22;5412;59.450;18.124;2023-11-21T14:36:05;2.30;99.90
10722;DHT22;5412;59.450;18.124;2023-11-21T14:38:33;2.30;99.90
10722;DHT22;5412;59.450;18.124;2023-11-21T14:40:59;2.30;99.90
10722;DHT22;5412;59.450;18.124;2023-11-21T14:43:25;2.30;99.90
10722;DHT22;5412;59.450;18.124;2023-11-21T14:45:53;2.20;99.90
10722;DHT22;5412;59.450;18.124;2023-11-21T14:48:21;2.30;99.90
10722;DHT22;5412;59.450;18.124;2023-11-21T14:51:05;2.20;99.90
10722;DHT22;5412;59.450;18.124;2023-11-21T14:53:31;2.30;99.90
10722;DHT22;5412;59.450;18.124;2023-11-21T14:56:16;2.30;99.90
10722;DHT22;5412;59.450;18.124;2023-11-21T14:58:50;2.40;99.90
10722;DHT22;5412;59.450;18.124;2023-11-21T15:01:16;2.40;99.90
10722;DHT22;5412;59.450;18.124;2023-11-21T15:03:52;2.40;99.90
10722;DHT22;5412;59.450;18.124;2023-11-21T15:06:19;2.40;99.90
10722;DHT22;5412;59.450;18.124;2023-11-21T15:08:57;2.40;99.90
10722;DHT22;5412;59.450;18.124;2023-11-21T15:11:46;2.50;99.90
10722;DHT22;5412;59.450;18.124;2023-11-21T15:14:13;2.40;99.90
10722;DHT22;5412;59.450;18.124;2023-11-21T15:16:45;2.40;99.90
10722;DHT22;5412;59.450;18.124;2023-11-21T15:19:16;2.50;99.90
10722;DHT22;5412;59.450;18.124;2023-11-21T15:21:44;2.50;99.90
10722;DHT22;5412;59.450;18.124;2023-11-21T15:24:12;2.50;99.90
10722;DHT22;5412;59.450;18.124;2023-11-21T15:26:37;2.60;99.90
10722;DHT22;5412;59.450;18.124;2023-11-21T15:29:04;2.50;99.90
10722;DHT22;5412;59.450;18.124;2023-11-21T15:31:30;2.50;99.90
10722;DHT22;5412;59.450;18.124;2023-11-21T15:33:56;2.60;99.90
10722;DHT22;5412;59.450;18.124;2023-11-21T15:36:26;2.50;99.90
10722;DHT22;5412;59.450;18.124;2023-11-21T15:38:52;2.50;99.90
10722;DHT22;5412;59.450;18.124;2023-11-21T15:41:19;2.40;99.90
10722;DHT22;5412;59.450;18.124;2023-11-21T15:43:45;2.40;99.90
10722;DHT22;5412;59.450;18.124;2023-11-21T15:46:10;2.40;99.90
10722;DHT22;5412;59.450;18.124;2023-11-21T15:48:37;2.40;99.90
10722;DHT22;5412;59.450;18.124;2023-11-21T15:51:06;2.40;99.90
10722;DHT22;5412;59.450;18.124;2023-11-21T15:53:35;2.40;99.90
10722;DHT22;5412;59.450;18.124;2023-11-21T15:56:04;2.50;99.90
10722;DHT22;5412;59.450;18.124;2023-11-21T15:58:29;2.50;99.90
10722;DHT22;5412;59.450;18.124;2023-11-21T16:00:55;2.50;99.90
10722;DHT22;5412;59.450;18.124;2023-11-21T16:03:23;2.60;99.90
10722;DHT22;5412;59.450;18.124;2023-11-21T16:05:49;2.60;99.90
10722;DHT22;5412;59.450;18.124;2023-11-21T16:08:14;2.60;99.90
10722;DHT22;5412;59.450;18.124;2023-11-21T16:10:40;2.60;99.90